Time;durP1;ratioP1;P1;durP2;ratioP2;P2;SDS_P1;SDS_P2;PMS_P1;PMS_P2;Temp;Humidity;BMP_temperature;BMP_pressure;BME280_temperature;BME280_humidity;BME280_pressure;Samples;Min_cycle;Max_cycle;Signal;HPM_P1;HPM_P2
2021/01/08 00:00:08;;;;;;;30.35;20.48;;;204.90;1971.20;;;;;;5094545;28;20036;-58
2021/01/08 00:02:34;;;;;;;33.47;20.98;;;205.00;1971.20;;;;;;5112579;28;20020;-56
2021/01/08 00:05:00;;;;;;;32.47;21.85;;;205.00;1971.20;;;;;;5110990;28;20189;-57
2021/01/08 00:07:26;;;;;;;31.88;20.45;;;205.00;1920.00;;;;;;5105925;28;20024;-58
2021/01/08 00:09:51;;;;;;;35.42;21.40;;;205.00;1945.60;;;;;;5110872;28;20042;-56
2021/01/08 00:12:17;;;;;;;32.40;20.98;;;205.00;1971.20;;;;;;5112572;28;20027;-56
2021/01/08 00:14:43;;;;;;;30.25;19.65;;;205.00;1945.60;;;;;;5111873;28;20095;-61
2021/01/08 00:17:08;;;;;;;34.28;20.65;;;205.10;1945.60;;;;;;5112705;28;20031;-58
2021/01/08 00:19:34;;;;;;;30.35;19.00;;;205.10;1920.00;;;;;;5114266;28;20024;-58
2021/01/08 00:22:00;;;;;;;33.65;20.63;;;205.10;1945.60;;;;;;5112654;28;20028;-59
2021/01/08 00:24:26;;;;;;;30.55;19.75;;;205.10;1945.60;;;;;;5111051;28;20024;-57
2021/01/08 00:26:54;;;;;;;32.10;20.05;;;205.10;1945.60;;;;;;5112947;28;20342;-57
2021/01/08 00:29:21;;;;;;;29.75;19.88;;;205.10;1945.60;;;;;;5111747;28;20035;-57
2021/01/08 00:31:47;;;;;;;30.60;18.95;;;205.10;1945.60;;;;;;5110891;28;20081;-59
2021/01/08 00:34:17;;;;;;;26.25;17.58;;;205.10;1945.60;;;;;;5094511;28;20039;-59
2021/01/08 00:36:50;;;;;;;27.23;17.85;;;205.30;1920.00;;;;;;5113843;28;20015;-57
2021/01/08 00:39:16;;;;;;;26.45;17.48;;;205.20;1920.00;;;;;;5109140;28;20497;-57
2021/01/08 00:41:42;;;;;;;26.08;17.17;;;205.20;1920.00;;;;;;5111816;28;20051;-57
2021/01/08 00:44:08;;;;;;;25.95;16.67;;;205.30;1920.00;;;;;;5111574;28;20074;-57
2021/01/08 00:46:38;;;;;;;25.08;15.43;;;205.30;1894.40;;;;;;5106322;28;20538;-59
2021/01/08 00:49:06;;;;;;;25.23;15.65;;;205.40;1894.40;;;;;;5110815;28;20024;-59
2021/01/08 00:51:32;;;;;;;25.20;16.05;;;205.50;1868.80;;;;;;5112664;28;20058;-58
2021/01/08 00:53:58;;;;;;;26.30;17.08;;;205.50;1868.80;;;;;;5112280;28;20035;-58
2021/01/08 00:56:24;;;;;;;31.50;18.17;;;205.60;1868.80;;;;;;5111862;28;20023;-55
2021/01/08 00:58:50;;;;;;;28.70;17.50;;;205.60;1868.80;;;;;;5110017;28;20035;-58
2021/01/08 01:01:17;;;;;;;27.85;17.23;;;205.60;1868.80;;;;;;5093886;28;20027;-58
2021/01/08 01:03:43;;;;;;;24.58;17.33;;;205.70;1868.80;;;;;;5093290;28;20048;-57
2021/01/08 01:06:09;;;;;;;25.35;16.92;;;205.70;1843.20;;;;;;5093423;28;20538;-57
2021/01/08 01:08:35;;;;;;;27.70;17.52;;;205.70;1843.20;;;;;;5097417;28;20020;-57
2021/01/08 01:11:00;;;;;;;29.33;16.52;;;205.70;1843.20;;;;;;5097512;28;20554;-56
2021/01/08 01:13:27;;;;;;;25.58;16.70;;;205.70;1868.80;;;;;;5097825;28;20025;-58
2021/01/08 01:15:53;;;;;;;30.00;16.05;;;205.60;1868.80;;;;;;5096153;28;20361;-56
2021/01/08 01:18:19;;;;;;;22.63;15.82;;;205.70;1868.80;;;;;;5093683;28;20100;-56
2021/01/08 01:20:46;;;;;;;24.70;16.02;;;205.70;1894.40;;;;;;5093362;28;20458;-56
2021/01/08 01:23:11;;;;;;;25.83;17.05;;;205.70;1894.40;;;;;;5093221;28;20485;-57
2021/01/08 01:25:37;;;;;;;23.15;14.73;;;205.70;1868.80;;;;;;5093509;28;20215;-57
2021/01/08 01:28:03;;;;;;;25.42;15.52;;;230.40;1868.80;;;;;;5093552;28;20102;-56
2021/01/08 01:30:31;;;;;;;21.50;14.80;;;205.70;1868.80;;;;;;5093520;28;20028;-59
2021/01/08 01:32:58;;;;;;;22.88;14.63;;;230.40;1868.80;;;;;;5093165;28;20042;-56
2021/01/08 01:35:24;;;;;;;26.98;16.17;;;205.70;1868.80;;;;;;5092968;28;20031;-56
2021/01/08 01:37:51;;;;;;;25.13;17.23;;;205.60;1894.40;;;;;;5093101;28;20016;-56
2021/01/08 01:40:17;;;;;;;27.77;17.30;;;205.70;1868.80;;;;;;5093404;28;20090;-56
2021/01/08 01:42:43;;;;;;;29.73;19.42;;;205.70;1868.80;;;;;;5092893;28;20020;-57
2021/01/08 01:45:09;;;;;;;24.05;17.52;;;205.70;1894.40;;;;;;5092953;28;20031;-59
2021/01/08 01:47:35;;;;;;;23.55;16.27;;;205.70;1868.80;;;;;;5093086;28;20024;-57
2021/01/08 01:50:02;;;;;;;22.58;15.23;;;205.70;1868.80;;;;;;5074895;28;20036;-56
2021/01/08 01:52:28;;;;;;;23.00;14.15;;;230.40;1868.80;;;;;;5092744;28;20032;-57
2021/01/08 01:54:54;;;;;;;23.02;14.77;;;205.70;1868.80;;;;;;5092809;28;20165;-57
2021/01/08 01:57:20;;;;;;;24.42;15.68;;;230.40;1868.80;;;;;;5092671;28;20035;-56
2021/01/08 01:59:45;;;;;;;22.80;15.32;;;230.40;1868.80;;;;;;5092842;28;20020;-56
2021/01/08 02:02:19;;;;;;;23.05;14.60;;;205.60;1894.40;;;;;;5092342;28;20031;-55
2021/01/08 02:04:45;;;;;;;22.50;15.10;;;205.70;1894.40;;;;;;5092734;28;20112;-56
2021/01/08 02:07:12;;;;;;;22.08;15.02;;;205.70;1894.40;;;;;;5092276;28;20024;-56
2021/01/08 02:09:38;;;;;;;20.50;15.20;;;205.70;1868.80;;;;;;5093017;28;20038;-57
2021/01/08 02:12:04;;;;;;;23.33;14.45;;;205.70;1894.40;;;;;;5092464;28;20374;-57
2021/01/08 02:14:32;;;;;;;19.15;13.88;;;205.70;1894.40;;;;;;5078680;28;20047;-56
2021/01/08 02:16:59;;;;;;;20.02;13.75;;;230.40;1894.40;;;;;;5092588;28;20325;-58
2021/01/08 02:19:32;;;;;;;20.38;13.30;;;230.40;1868.80;;;;;;5092600;28;20012;-58
2021/01/08 02:22:10;;;;;;;22.27;14.95;;;205.60;1894.40;;;;;;5092506;28;20027;-57
2021/01/08 02:24:43;;;;;;;22.85;15.82;;;205.60;1920.00;;;;;;5092867;28;20020;-57
2021/01/08 02:27:09;;;;;;;24.00;16.55;;;205.60;1894.40;;;;;;5092395;28;20040;-57
2021/01/08 02:29:35;;;;;;;24.10;16.63;;;205.60;1894.40;;;;;;5092517;28;20027;-60
2021/01/08 02:32:02;;;;;;;26.48;17.42;;;205.60;1920.00;;;;;;5092567;28;20030;-58
2021/01/08 02:34:28;;;;;;;26.23;18.05;;;205.60;1920.00;;;;;;5074654;28;20047;-60
2021/01/08 02:36:55;;;;;;;25.17;17.10;;;205.50;1894.40;;;;;;5092642;28;20109;-60
2021/01/08 02:39:22;;;;;;;26.70;17.67;;;205.60;1920.00;;;;;;5091139;28;20091;-60
2021/01/08 02:41:52;;;;;;;28.48;19.98;;;205.60;1920.00;;;;;;5092499;28;20107;-59
2021/01/08 02:44:20;;;;;;;25.10;17.63;;;205.50;1920.00;;;;;;5095475;28;20509;-58
2021/01/08 02:46:47;;;;;;;26.70;19.00;;;205.40;1945.60;;;;;;5096632;28;20012;-57
2021/01/08 02:49:13;;;;;;;26.35;18.63;;;205.40;1945.60;;;;;;5092404;28;20028;-57
2021/01/08 02:51:40;;;;;;;24.75;18.55;;;205.40;1945.60;;;;;;5093191;28;20038;-57
2021/01/08 02:54:08;;;;;;;26.05;18.73;;;205.30;1971.20;;;;;;5092845;28;20054;-57
2021/01/08 02:56:39;;;;;;;28.17;18.60;;;205.40;1945.60;;;;;;5093097;28;20052;-54
2021/01/08 02:59:06;;;;;;;27.88;19.08;;;205.30;1945.60;;;;;;5093123;28;20036;-57
2021/01/08 03:01:33;;;;;;;26.73;18.95;;;205.40;1945.60;;;;;;5078660;28;20024;-56
2021/01/08 03:04:00;;;;;;;27.00;19.17;;;205.30;1971.20;;;;;;5092311;28;20041;-57
2021/01/08 03:06:29;;;;;;;27.58;18.85;;;205.40;1971.20;;;;;;5092379;28;20446;-57
2021/01/08 03:08:56;;;;;;;29.05;19.50;;;205.40;1945.60;;;;;;5092222;28;20013;-56
2021/01/08 03:11:22;;;;;;;27.75;17.63;;;205.50;1945.60;;;;;;5091780;28;20028;-58
2021/01/08 03:13:48;;;;;;;26.95;18.55;;;205.50;1945.60;;;;;;5092034;28;20034;-57
2021/01/08 03:16:14;;;;;;;28.85;18.08;;;205.60;1920.00;;;;;;5092324;28;20080;-56
2021/01/08 03:18:40;;;;;;;25.58;17.83;;;205.60;1920.00;;;;;;5092276;28;20542;-58
2021/01/08 03:21:06;;;;;;;26.88;18.05;;;205.70;1894.40;;;;;;5095551;28;20107;-56
2021/01/08 03:23:31;;;;;;;26.48;17.52;;;205.60;1894.40;;;;;;5096024;28;20043;-57
2021/01/08 03:25:57;;;;;;;22.70;16.85;;;205.50;1920.00;;;;;;5077648;28;20032;-57
2021/01/08 03:28:23;;;;;;;26.98;19.00;;;205.60;1920.00;;;;;;5077176;28;20143;-57
2021/01/08 03:30:48;;;;;;;29.23;18.90;;;205.50;1920.00;;;;;;5095679;28;20035;-56
2021/01/08 03:33:14;;;;;;;23.55;16.17;;;205.50;1945.60;;;;;;5093002;28;20032;-57
2021/01/08 03:35:40;;;;;;;28.52;17.08;;;205.50;1945.60;;;;;;5095590;28;20020;-59
2021/01/08 03:38:06;;;;;;;24.52;16.58;;;205.50;1945.60;;;;;;5095268;28;20466;-57
2021/01/08 03:40:33;;;;;;;23.48;17.27;;;205.50;1971.20;;;;;;5095384;28;20081;-57
2021/01/08 03:42:59;;;;;;;23.00;17.45;;;205.60;1971.20;;;;;;5076897;28;20032;-57
2021/01/08 03:45:26;;;;;;;23.10;16.13;;;205.60;1971.20;;;;;;5095850;28;20488;-57
2021/01/08 03:47:51;;;;;;;24.48;16.02;;;205.60;1971.20;;;;;;5095165;28;20466;-57
2021/01/08 03:50:17;;;;;;;21.38;15.45;;;205.60;1996.80;;;;;;5095178;28;20036;-57
2021/01/08 03:52:42;;;;;;;22.67;14.55;;;205.50;1996.80;;;;;;5094869;28;20473;-56
2021/01/08 03:55:09;;;;;;;18.90;12.77;;;205.50;1996.80;;;;;;5095747;28;20494;-58
2021/01/08 03:57:34;;;;;;;17.13;12.35;;;205.50;1996.80;;;;;;5095531;28;20381;-57
2021/01/08 04:00:00;;;;;;;16.30;11.55;;;205.40;1996.80;;;;;;5095694;28;20032;-56
2021/01/08 04:02:26;;;;;;;13.65;10.20;;;205.40;1996.80;;;;;;5095001;28;20115;-57
2021/01/08 04:04:51;;;;;;;14.82;9.18;;;205.50;1996.80;;;;;;5094942;28;20051;-57
2021/01/08 04:07:17;;;;;;;12.93;9.20;;;205.40;1996.80;;;;;;5094684;28;20056;-57
2021/01/08 04:09:43;;;;;;;12.50;9.93;;;205.40;1996.80;;;;;;5094678;28;20020;-56
2021/01/08 04:12:09;;;;;;;12.85;8.65;;;205.30;1996.80;;;;;;5094895;28;20032;-57
2021/01/08 04:14:34;;;;;;;13.68;9.05;;;205.30;1996.80;;;;;;5094912;28;20020;-58
2021/01/08 04:17:00;;;;;;;11.77;8.57;;;205.30;1996.80;;;;;;5094668;28;20028;-56
2021/01/08 04:19:26;;;;;;;12.10;8.52;;;205.20;1996.80;;;;;;5094823;28;20032;-57
2021/01/08 04:21:51;;;;;;;9.45;7.15;;;205.20;1996.80;;;;;;5094402;28;20107;-55
2021/01/08 04:24:17;;;;;;;10.90;7.45;;;205.20;1996.80;;;;;;5094794;28;20028;-57
2021/01/08 04:26:43;;;;;;;10.63;6.82;;;205.20;1996.80;;;;;;5094475;28;20026;-56
2021/01/08 04:29:08;;;;;;;10.40;6.72;;;205.10;1996.80;;;;;;5094217;28;20032;-58
2021/01/08 04:31:34;;;;;;;10.02;5.47;;;205.00;1996.80;;;;;;5094335;28;20382;-59
2021/01/08 04:34:00;;;;;;;9.77;6.28;;;205.10;1971.20;;;;;;5094279;28;20111;-56
2021/01/08 04:36:26;;;;;;;7.50;5.35;;;205.00;1996.80;;;;;;5094502;28;20028;-57
2021/01/08 04:38:51;;;;;;;8.77;5.63;;;205.00;1996.80;;;;;;5094128;28;20058;-57
2021/01/08 04:41:17;;;;;;;6.70;5.15;;;205.00;2022.40;;;;;;5094542;28;20027;-59
2021/01/08 04:43:44;;;;;;;7.53;5.20;;;205.10;1996.80;;;;;;5094252;28;20404;-58
2021/01/08 04:46:14;;;;;;;8.40;5.78;;;205.10;1971.20;;;;;;5094503;28;20020;-57
2021/01/08 04:48:42;;;;;;;8.57;5.65;;;205.00;1996.80;;;;;;5094861;28;20020;-57
2021/01/08 04:51:10;;;;;;;6.82;4.72;;;205.00;1996.80;;;;;;5097117;28;20036;-56
2021/01/08 04:53:36;;;;;;;8.13;5.05;;;205.00;2022.40;;;;;;5097372;28;20466;-58
2021/01/08 04:56:06;;;;;;;8.68;5.10;;;205.00;1996.80;;;;;;5097504;28;20032;-59
2021/01/08 04:58:32;;;;;;;6.95;5.30;;;205.00;1996.80;;;;;;5097352;28;20017;-58
2021/01/08 05:01:02;;;;;;;7.18;5.28;;;205.00;1996.80;;;;;;5094440;28;20454;-58
2021/01/08 05:03:29;;;;;;;8.02;5.53;;;204.90;2022.40;;;;;;5093618;28;20028;-57
2021/01/08 05:05:55;;;;;;;8.30;5.43;;;205.00;2022.40;;;;;;5093475;28;20363;-57
2021/01/08 05:08:22;;;;;;;9.05;6.45;;;204.90;1996.80;;;;;;5093621;28;20499;-57
2021/01/08 05:10:48;;;;;;;6.55;5.43;;;205.00;1996.80;;;;;;5093344;28;20036;-58
2021/01/08 05:13:14;;;;;;;7.72;5.78;;;205.00;1996.80;;;;;;5093548;28;20020;-57
2021/01/08 05:15:40;;;;;;;8.75;5.90;;;205.00;1996.80;;;;;;5093485;28;20073;-62
2021/01/08 05:18:07;;;;;;;8.68;5.40;;;205.00;2022.40;;;;;;5093548;28;20028;-57
2021/01/08 05:20:32;;;;;;;7.90;5.50;;;204.90;2022.40;;;;;;5093701;28;20039;-60
2021/01/08 05:22:59;;;;;;;8.02;5.15;;;205.00;2022.40;;;;;;5093242;28;20024;-57
2021/01/08 05:25:25;;;;;;;7.45;5.07;;;204.90;2022.40;;;;;;5093345;28;20481;-57
2021/01/08 05:27:51;;;;;;;7.35;5.32;;;204.90;2022.40;;;;;;5093260;28;20034;-57
2021/01/08 05:30:26;;;;;;;7.03;5.72;;;205.00;1996.80;;;;;;5093470;28;20020;-57
2021/01/08 05:32:58;;;;;;;6.57;5.10;;;205.00;1996.80;;;;;;5092916;28;20046;-56
2021/01/08 05:35:25;;;;;;;6.28;4.68;;;204.90;2022.40;;;;;;5093322;28;20013;-57
2021/01/08 05:37:53;;;;;;;9.85;5.07;;;204.90;1996.80;;;;;;5093070;28;20047;-58
2021/01/08 05:40:25;;;;;;;7.80;6.10;;;204.80;2022.40;;;;;;5093107;28;20017;-58
2021/01/08 05:43:01;;;;;;;6.78;5.10;;;204.80;2048.00;;;;;;5092043;28;20024;-57
2021/01/08 05:45:29;;;;;;;9.68;6.00;;;204.80;2048.00;;;;;;5092977;28;20066;-58
2021/01/08 05:47:57;;;;;;;8.60;5.43;;;204.80;2048.00;;;;;;5093082;28;20050;-57
2021/01/08 05:50:25;;;;;;;11.60;6.57;;;180.10;2073.60;;;;;;5092833;28;20367;-57
2021/01/08 05:52:56;;;;;;;9.37;6.00;;;180.10;2073.60;;;;;;5092995;28;20016;-57
2021/01/08 05:55:22;;;;;;;10.13;6.68;;;204.90;2073.60;;;;;;5093111;28;20145;-57
2021/01/08 05:57:50;;;;;;;9.13;6.38;;;204.80;2048.00;;;;;;5093253;28;20055;-56
2021/01/08 06:00:16;;;;;;;8.85;5.95;;;180.10;2073.60;;;;;;5091501;28;20020;-61
2021/01/08 06:02:42;;;;;;;9.10;5.72;;;180.10;2073.60;;;;;;5092538;28;20024;-58
2021/01/08 06:05:09;;;;;;;9.82;7.03;;;204.80;2073.60;;;;;;5096337;28;20039;-58
2021/01/08 06:07:38;;;;;;;16.77;8.93;;;180.10;2099.20;;;;;;5111440;28;20034;-58
2021/01/08 06:10:06;;;;;;;10.50;6.95;;;204.80;2073.60;;;;;;5098590;28;20020;-57
2021/01/08 06:12:40;;;;;;;9.38;6.68;;;180.10;2099.20;;;;;;5112879;28;20085;-57
2021/01/08 06:15:12;;;;;;;8.90;6.20;;;180.10;2099.20;;;;;;5112988;28;20443;-58
2021/01/08 06:17:38;;;;;;;10.40;5.65;;;204.80;2099.20;;;;;;5102987;28;20511;-59
2021/01/08 06:20:07;;;;;;;8.07;6.00;;;180.10;2073.60;;;;;;5089848;28;20074;-63
2021/01/08 06:22:40;;;;;;;8.20;5.82;;;180.10;2073.60;;;;;;5112750;28;20019;-59
2021/01/08 06:25:08;;;;;;;7.43;5.55;;;180.10;2073.60;;;;;;5111887;28;20469;-58
2021/01/08 06:27:35;;;;;;;7.75;5.60;;;180.10;2099.20;;;;;;5100048;28;20031;-57
2021/01/08 06:30:08;;;;;;;9.13;5.72;;;180.00;2073.60;;;;;;5112575;28;20031;-59
2021/01/08 06:32:34;;;;;;;7.82;5.45;;;180.10;2048.00;;;;;;5085749;28;20028;-60
2021/01/08 06:35:07;;;;;;;10.35;6.18;;;180.10;2073.60;;;;;;5100794;28;20454;-58
2021/01/08 06:37:43;;;;;;;6.85;4.68;;;180.00;2048.00;;;;;;5111589;28;20458;-58
2021/01/08 06:40:14;;;;;;;9.63;4.63;;;180.00;2073.60;;;;;;5112948;28;20385;-58
2021/01/08 06:42:47;;;;;;;6.15;4.60;;;180.00;2073.60;;;;;;5105204;28;20021;-56
2021/01/08 06:45:17;;;;;;;7.82;4.90;;;179.80;2099.20;;;;;;5092655;28;20027;-62
2021/01/08 06:47:47;;;;;;;6.40;4.68;;;179.80;2099.20;;;;;;5095956;28;20115;-58
2021/01/08 06:50:18;;;;;;;7.97;4.72;;;179.70;2124.80;;;;;;5112199;28;20085;-57
2021/01/08 06:52:46;;;;;;;8.25;4.65;;;179.80;2099.20;;;;;;5097977;28;20030;-58
2021/01/08 06:55:16;;;;;;;7.65;5.07;;;179.90;2099.20;;;;;;5115367;28;20031;-57
2021/01/08 06:57:52;;;;;;;7.53;4.95;;;179.90;2073.60;;;;;;5116673;28;20080;-57
2021/01/08 07:00:21;;;;;;;6.72;4.40;;;180.00;2073.60;;;;;;5105278;28;20028;-60
2021/01/08 07:02:52;;;;;;;9.75;4.70;;;179.90;2073.60;;;;;;5113706;28;20458;-60
2021/01/08 07:05:19;;;;;;;9.80;5.53;;;179.80;2099.20;;;;;;5116516;28;20146;-63
2021/01/08 07:07:47;;;;;;;9.68;5.82;;;179.80;2099.20;;;;;;5115791;28;20123;-66
2021/01/08 07:10:17;;;;;;;8.97;5.70;;;179.70;2099.20;;;;;;5116346;28;20118;-63
2021/01/08 07:12:43;;;;;;;9.60;6.45;;;180.00;2099.20;;;;;;5116222;28;20356;-68
2021/01/08 07:15:11;;;;;;;6.85;5.53;;;179.80;2099.20;;;;;;5116658;28;20511;-57
2021/01/08 07:17:39;;;;;;;7.00;5.07;;;179.80;2099.20;;;;;;5102608;28;20485;-57
2021/01/08 07:20:07;;;;;;;5.75;4.82;;;179.80;2099.20;;;;;;5115545;28;20037;-58
2021/01/08 07:22:41;;;;;;;7.10;5.00;;;179.90;2073.60;;;;;;5115977;28;20022;-57
2021/01/08 07:25:12;;;;;;;6.55;4.20;;;179.80;2073.60;;;;;;5116223;28;20054;-67
2021/01/08 07:27:41;;;;;;;6.55;4.80;;;180.00;2099.20;;;;;;5115975;28;20173;-60
2021/01/08 07:30:11;;;;;;;6.85;4.57;;;179.90;2073.60;;;;;;5115872;28;20393;-59
2021/01/08 07:32:48;;;;;;;5.95;4.50;;;180.00;2073.60;;;;;;5115987;28;20465;-58
2021/01/08 07:35:29;;;;;;;7.45;5.13;;;204.80;2073.60;;;;;;5115749;28;20473;-59
2021/01/08 07:38:02;;;;;;;7.93;4.90;;;180.10;2048.00;;;;;;5115491;28;20030;-60
2021/01/08 07:40:32;;;;;;;6.03;4.63;;;180.10;2048.00;;;;;;5115762;28;20024;-57
2021/01/08 07:42:58;;;;;;;9.60;5.22;;;180.10;2048.00;;;;;;5115904;28;20020;-57
2021/01/08 07:45:50;;;;;;;8.05;5.25;;;204.80;2048.00;;;;;;5115858;28;20023;-56
2021/01/08 07:48:30;;;;;;;9.18;5.40;;;180.10;2073.60;;;;;;5115408;28;20028;-56
2021/01/08 07:51:01;;;;;;;7.65;5.22;;;180.10;2048.00;;;;;;5083426;28;20051;-59
2021/01/08 07:53:47;;;;;;;8.90;5.63;;;180.00;2048.00;;;;;;5108250;28;20469;-58
2021/01/08 07:56:17;;;;;;;7.70;5.63;;;180.10;2073.60;;;;;;5082768;28;20147;-59
2021/01/08 07:59:07;;;;;;;6.88;5.20;;;204.80;2048.00;;;;;;5109510;28;20031;-57
2021/01/08 08:01:34;;;;;;;7.45;5.13;;;180.00;2099.20;;;;;;5114884;28;20024;-56
2021/01/08 08:04:04;;;;;;;7.78;5.10;;;179.90;2073.60;;;;;;5098808;28;20067;-61
2021/01/08 08:06:39;;;;;;;7.38;4.65;;;180.00;2073.60;;;;;;5059002;28;20514;-61
2021/01/08 08:09:06;;;;;;;12.82;6.13;;;180.10;2073.60;;;;;;5101319;28;20038;-58
2021/01/08 08:11:35;;;;;;;7.88;5.38;;;180.00;2073.60;;;;;;5094713;28;20032;-57
2021/01/08 08:14:02;;;;;;;8.82;5.57;;;204.80;2073.60;;;;;;5076320;28;20389;-64
2021/01/08 08:16:34;;;;;;;9.85;5.80;;;180.10;2073.60;;;;;;5094814;28;20075;-58
2021/01/08 08:19:01;;;;;;;8.25;5.90;;;180.10;2073.60;;;;;;5094967;28;20021;-57
2021/01/08 08:21:27;;;;;;;8.35;5.80;;;180.00;2073.60;;;;;;5094801;28;20016;-64
2021/01/08 08:23:57;;;;;;;7.90;5.45;;;180.00;2099.20;;;;;;5086213;28;20082;-58
2021/01/08 08:26:23;;;;;;;11.70;6.65;;;180.00;2099.20;;;;;;5094682;28;20009;-61
2021/01/08 08:29:06;;;;;;;8.88;5.65;;;180.00;2124.80;;;;;;5094885;28;20020;-59
2021/01/08 08:31:40;;;;;;;10.57;5.30;;;179.90;2099.20;;;;;;5094182;28;20470;-57
2021/01/08 08:34:09;;;;;;;10.88;6.25;;;179.80;2124.80;;;;;;5086015;28;20078;-64
2021/01/08 08:36:35;;;;;;;11.05;7.65;;;179.80;2124.80;;;;;;5092797;28;20059;-60
2021/01/08 08:39:05;;;;;;;15.43;9.52;;;179.80;2124.80;;;;;;5094232;28;20090;-59
2021/01/08 08:41:32;;;;;;;16.02;8.70;;;179.80;2124.80;;;;;;5094208;28;20032;-62
2021/01/08 08:44:00;;;;;;;47.17;20.63;;;180.00;2099.20;;;;;;5094045;28;20114;-57
2021/01/08 08:46:38;;;;;;;25.33;10.90;;;180.00;2124.80;;;;;;5094305;28;20079;-57
2021/01/08 08:49:06;;;;;;;9.05;5.63;;;180.00;2124.80;;;;;;5087925;28;20020;-64
2021/01/08 08:51:32;;;;;;;13.95;8.32;;;180.00;2099.20;;;;;;5093801;28;20028;-60
2021/01/08 08:53:58;;;;;;;11.75;6.40;;;204.80;2073.60;;;;;;5093506;28;20016;-60
2021/01/08 08:56:24;;;;;;;9.40;5.88;;;204.80;2099.20;;;;;;5093900;28;20028;-61
2021/01/08 08:58:50;;;;;;;9.38;5.47;;;180.10;2099.20;;;;;;5102483;28;20092;-58
2021/01/08 09:01:15;;;;;;;8.93;5.57;;;180.00;2099.20;;;;;;5094230;28;20481;-62
2021/01/08 09:03:41;;;;;;;7.53;5.70;;;180.00;2124.80;;;;;;5093530;28;20068;-63
2021/01/08 09:06:10;;;;;;;10.45;5.90;;;179.90;2124.80;;;;;;5093569;28;20394;-62
2021/01/08 09:08:39;;;;;;;7.65;5.30;;;180.00;2124.80;;;;;;5093433;28;20127;-65
2021/01/08 09:11:33;;;;;;;8.98;5.13;;;180.10;2124.80;;;;;;5095501;28;20032;-62
2021/01/08 09:14:12;;;;;;;7.90;5.43;;;180.10;2099.20;;;;;;5081668;28;20028;-58
2021/01/08 09:17:15;;;;;;;7.22;5.15;;;180.10;2099.20;;;;;;5096844;28;20052;-65
2021/01/08 09:19:56;;;;;;;8.10;4.40;;;180.00;2099.20;;;;;;5011516;28;20086;-60
2021/01/08 09:22:23;;;;;;;7.50;5.63;;;180.10;2073.60;;;;;;5010357;28;20018;-61
2021/01/08 09:24:50;;;;;;;8.52;5.03;;;180.00;2099.20;;;;;;5011423;28;20037;-58
2021/01/08 09:27:16;;;;;;;8.38;5.20;;;180.10;2099.20;;;;;;5014761;28;20026;-58
2021/01/08 09:29:42;;;;;;;8.15;5.15;;;180.00;2099.20;;;;;;5024431;28;20120;-60
2021/01/08 09:32:09;;;;;;;7.07;4.70;;;180.00;2073.60;;;;;;5012344;28;20038;-62
2021/01/08 09:34:36;;;;;;;7.60;3.80;;;179.80;2124.80;;;;;;5012579;28;20017;-58
2021/01/08 09:37:13;;;;;;;6.18;4.22;;;179.70;2099.20;;;;;;5028791;28;20420;-63
2021/01/08 09:39:41;;;;;;;8.98;4.68;;;180.00;2124.80;;;;;;5028944;28;20034;-60
2021/01/08 09:42:07;;;;;;;4.97;3.67;;;180.00;2099.20;;;;;;5027782;28;20034;-60
2021/01/08 09:44:34;;;;;;;5.22;3.85;;;180.00;2073.60;;;;;;5026585;28;20084;-62
2021/01/08 09:47:05;;;;;;;4.90;3.70;;;180.00;2073.60;;;;;;5015637;28;20034;-63
2021/01/08 09:49:42;;;;;;;6.07;3.50;;;179.80;2124.80;;;;;;5010828;28;20113;-60
2021/01/08 09:52:09;;;;;;;5.90;4.53;;;179.90;2099.20;;;;;;5010986;28;20025;-61
2021/01/08 09:54:54;;;;;;;6.47;4.72;;;180.00;2099.20;;;;;;5012160;28;20568;-60
2021/01/08 09:57:35;;;;;;;11.20;5.50;;;180.00;2124.80;;;;;;5088646;28;20020;-60
2021/01/08 10:00:06;;;;;;;8.23;6.05;;;179.90;2099.20;;;;;;5109699;28;20101;-59
2021/01/08 10:02:47;;;;;;;8.20;5.20;;;179.80;2150.40;;;;;;5113203;28;20433;-65
2021/01/08 10:05:19;;;;;;;9.23;5.75;;;179.80;2150.40;;;;;;5113087;28;20039;-59
2021/01/08 10:07:46;;;;;;;9.85;6.10;;;179.80;2124.80;;;;;;5113429;28;20102;-59
2021/01/08 10:10:13;;;;;;;8.73;6.57;;;179.60;2176.00;;;;;;5112939;28;20388;-66
2021/01/08 10:12:45;;;;;;;7.55;4.90;;;179.70;2176.00;;;;;;5102655;28;20099;-62
2021/01/08 10:15:12;;;;;;;10.43;5.68;;;179.70;2150.40;;;;;;5094842;28;20027;-63
2021/01/08 10:17:49;;;;;;;8.38;5.57;;;179.80;2150.40;;;;;;5102939;28;20026;-60
2021/01/08 10:20:19;;;;;;;6.32;4.95;;;179.80;2150.40;;;;;;5095914;28;20024;-66
2021/01/08 10:22:52;;;;;;;5.80;3.83;;;179.80;2124.80;;;;;;5104714;28;20061;-62
2021/01/08 10:25:22;;;;;;;8.75;4.93;;;179.80;2099.20;;;;;;5114193;28;20447;-66
2021/01/08 10:27:48;;;;;;;5.28;3.08;;;179.70;2150.40;;;;;;5104187;28;20024;-63
2021/01/08 10:30:14;;;;;;;5.93;3.40;;;179.70;2099.20;;;;;;5097283;28;20378;-65
2021/01/08 10:32:49;;;;;;;5.60;3.75;;;179.60;2252.80;;;;;;5116845;28;20067;-66
2021/01/08 10:35:19;;;;;;;7.72;4.07;;;179.30;2176.00;;;;;;5103102;28;20538;-62
2021/01/08 10:37:46;;;;;;;6.32;4.13;;;179.30;2176.00;;;;;;5105721;28;20024;-67
2021/01/08 10:40:12;;;;;;;9.18;4.68;;;179.30;2201.60;;;;;;5116293;28;20024;-65
2021/01/08 10:42:38;;;;;;;10.38;5.38;;;179.30;2227.20;;;;;;5115619;28;20046;-60
2021/01/08 10:45:05;;;;;;;10.88;4.78;;;179.20;2176.00;;;;;;5113902;28;20021;-62
2021/01/08 10:47:31;;;;;;;12.90;5.28;;;179.30;2176.00;;;;;;5111650;28;20389;-58
2021/01/08 10:49:59;;;;;;;9.52;5.60;;;179.40;2176.00;;;;;;5115230;28;20028;-60
2021/01/08 10:52:26;;;;;;;8.75;4.65;;;179.30;2150.40;;;;;;5101364;28;20066;-61
2021/01/08 10:54:52;;;;;;;6.70;4.95;;;179.20;2201.60;;;;;;5110479;28;20069;-64
2021/01/08 10:57:18;;;;;;;6.60;5.10;;;179.30;2176.00;;;;;;5104133;28;20446;-58
2021/01/08 10:59:44;;;;;;;8.07;5.28;;;179.20;2176.00;;;;;;5096301;28;20442;-57
2021/01/08 11:02:13;;;;;;;7.50;4.90;;;179.20;2176.00;;;;;;5096367;28;20029;-59
2021/01/08 11:04:42;;;;;;;5.15;3.65;;;179.20;2150.40;;;;;;5098559;28;20113;-58
2021/01/08 11:07:11;;;;;;;6.18;4.10;;;179.20;2176.00;;;;;;5097992;28;20497;-57
2021/01/08 11:09:37;;;;;;;7.22;4.97;;;179.30;2176.00;;;;;;5095551;28;20020;-59
2021/01/08 11:12:03;;;;;;;5.22;4.18;;;179.50;2176.00;;;;;;5096133;28;20086;-57
2021/01/08 11:14:29;;;;;;;4.68;3.10;;;154.50;2176.00;;;;;;5101965;28;20107;-68
2021/01/08 11:16:55;;;;;;;3.47;2.67;;;154.40;2176.00;;;;;;5101184;28;20507;-61
2021/01/08 11:19:20;;;;;;;4.80;2.90;;;154.50;2150.40;;;;;;5113441;28;20023;-69
2021/01/08 11:21:46;;;;;;;7.43;3.80;;;154.30;2176.00;;;;;;5110239;28;20035;-59
2021/01/08 11:24:12;;;;;;;6.63;4.72;;;154.30;2227.20;;;;;;5095919;28;20024;-60
2021/01/08 11:26:38;;;;;;;6.75;4.15;;;154.40;2201.60;;;;;;5095621;28;20035;-66
2021/01/08 11:29:03;;;;;;;5.63;4.60;;;154.50;2201.60;;;;;;5095635;28;20381;-60
2021/01/08 11:31:39;;;;;;;7.10;3.72;;;154.30;2176.00;;;;;;5101719;28;20039;-61
2021/01/08 11:34:09;;;;;;;6.85;3.70;;;154.40;2227.20;;;;;;5113011;28;20035;-57
2021/01/08 11:36:37;;;;;;;5.82;3.10;;;154.20;2201.60;;;;;;5102703;28;20047;-58
2021/01/08 11:39:03;;;;;;;6.65;3.70;;;153.90;2227.20;;;;;;5110376;28;20043;-59
2021/01/08 11:41:29;;;;;;;6.88;3.88;;;154.00;2252.80;;;;;;5110423;28;20039;-58
2021/01/08 11:43:55;;;;;;;6.43;4.18;;;154.30;2227.20;;;;;;5116453;28;20020;-61
2021/01/08 11:46:21;;;;;;;12.88;5.60;;;154.30;2252.80;;;;;;5108494;28;20035;-60
2021/01/08 11:48:51;;;;;;;6.13;4.63;;;154.30;2201.60;;;;;;5103791;28;20056;-61
2021/01/08 11:51:17;;;;;;;6.47;3.92;;;154.40;2176.00;;;;;;5114220;28;20412;-61
2021/01/08 11:53:44;;;;;;;7.18;5.00;;;154.40;2176.00;;;;;;5115790;28;20090;-58
2021/01/08 11:56:11;;;;;;;7.15;4.45;;;154.50;2176.00;;;;;;5113106;28;20028;-58
2021/01/08 11:58:38;;;;;;;5.72;3.78;;;154.50;2176.00;;;;;;5094948;28;20379;-60
2021/01/08 12:01:06;;;;;;;6.15;4.13;;;154.30;2176.00;;;;;;5095323;28;20465;-59
2021/01/08 12:03:39;;;;;;;13.63;3.70;;;154.40;2201.60;;;;;;5115392;28;20547;-61
2021/01/08 12:06:06;;;;;;;7.38;4.40;;;154.40;2176.00;;;;;;5115679;28;20268;-62
2021/01/08 12:08:32;;;;;;;6.95;4.85;;;154.40;2176.00;;;;;;5098265;28;20020;-59
2021/01/08 12:10:59;;;;;;;13.13;5.40;;;154.30;2201.60;;;;;;5094471;28;20032;-58
2021/01/08 12:13:24;;;;;;;13.57;6.80;;;154.40;2201.60;;;;;;5095096;28;20028;-60
2021/01/08 12:15:50;;;;;;;11.60;6.00;;;154.30;2201.60;;;;;;5094925;28;20031;-60